sensor_id;sensor_type;location;lat;lon;timestamp;temperature;humidity
19090;DHT22;9677;50.656;13.064;2023-04-23T00:00:22;16.90;45.10
19090;DHT22;9677;50.656;13.064;2023-04-23T00:02:54;16.00;44.90
19090;DHT22;9677;50.656;13.064;2023-04-23T00:05:27;17.00;45.30
19090;DHT22;9677;50.656;13.064;2023-04-23T00:07:59;17.10;45.30
19090;DHT22;9677;50.656;13.064;2023-04-23T00:10:31;16.80;45.00
19090;DHT22;9677;50.656;13.064;2023-04-23T00:13:00;16.90;45.10
19090;DHT22;9677;50.656;13.064;2023-04-23T00:15:31;16.70;45.00
19090;DHT22;9677;50.656;13.064;2023-04-23T00:18:00;16.80;45.00
19090;DHT22;9677;50.656;13.064;2023-04-23T00:20:31;17.10;45.10
19090;DHT22;9677;50.656;13.064;2023-04-23T00:23:00;16.80;44.90
19090;DHT22;9677;50.656;13.064;2023-04-23T00:25:29;17.10;45.20
19090;DHT22;9677;50.656;13.064;2023-04-23T00:27:59;16.80;45.00
19090;DHT22;9677;50.656;13.064;2023-04-23T00:30:28;17.20;45.30
19090;DHT22;9677;50.656;13.064;2023-04-23T00:32:58;16.70;44.90
19090;DHT22;9677;50.656;13.064;2023-04-23T00:35:27;16.60;44.90
19090;DHT22;9677;50.656;13.064;2023-04-23T00:37:58;16.80;45.10
19090;DHT22;9677;50.656;13.064;2023-04-23T00:40:27;16.90;45.30
19090;DHT22;9677;50.656;13.064;2023-04-23T00:42:57;16.50;45.20
19090;DHT22;9677;50.656;13.064;2023-04-23T00:45:29;16.60;45.30
19090;DHT22;9677;50.656;13.064;2023-04-23T00:47:59;16.60;45.30
19090;DHT22;9677;50.656;13.064;2023-04-23T00:50:30;16.60;45.40
19090;DHT22;9677;50.656;13.064;2023-04-23T00:53:01;17.60;45.70
19090;DHT22;9677;50.656;13.064;2023-04-23T00:55:31;17.20;45.60
19090;DHT22;9677;50.656;13.064;2023-04-23T00:58:01;17.20;45.90
19090;DHT22;9677;50.656;13.064;2023-04-23T01:00:37;16.60;45.40
19090;DHT22;9677;50.656;13.064;2023-04-23T01:03:34;17.10;45.90
19090;DHT22;9677;50.656;13.064;2023-04-23T01:13:01;16.60;45.90
19090;DHT22;9677;50.656;13.064;2023-04-23T01:15:31;16.60;45.50
19090;DHT22;9677;50.656;13.064;2023-04-23T01:18:01;16.60;45.70
19090;DHT22;9677;50.656;13.064;2023-04-23T01:20:31;16.50;45.70
19090;DHT22;9677;50.656;13.064;2023-04-23T01:23:03;16.50;45.60
19090;DHT22;9677;50.656;13.064;2023-04-23T01:25:34;16.50;45.70
19090;DHT22;9677;50.656;13.064;2023-04-23T01:28:04;16.30;45.50
19090;DHT22;9677;50.656;13.064;2023-04-23T01:30:35;16.50;45.80
19090;DHT22;9677;50.656;13.064;2023-04-23T01:33:07;16.50;45.80
19090;DHT22;9677;50.656;13.064;2023-04-23T01:35:38;16.50;45.90
19090;DHT22;9677;50.656;13.064;2023-04-23T01:38:11;16.50;45.90
19090;DHT22;9677;50.656;13.064;2023-04-23T01:40:43;16.50;46.00
19090;DHT22;9677;50.656;13.064;2023-04-23T01:43:13;16.50;45.80
19090;DHT22;9677;50.656;13.064;2023-04-23T01:45:43;16.60;45.90
19090;DHT22;9677;50.656;13.064;2023-04-23T01:48:13;16.50;45.90
19090;DHT22;9677;50.656;13.064;2023-04-23T01:50:44;16.40;45.90
19090;DHT22;9677;50.656;13.064;2023-04-23T01:53:19;16.40;46.10
19090;DHT22;9677;50.656;13.064;2023-04-23T01:55:49;16.30;46.20
19090;DHT22;9677;50.656;13.064;2023-04-23T01:58:19;16.50;46.50
19090;DHT22;9677;50.656;13.064;2023-04-23T02:10:59;16.40;47.10
19090;DHT22;9677;50.656;13.064;2023-04-23T02:13:29;16.10;46.50
19090;DHT22;9677;50.656;13.064;2023-04-23T02:15:57;16.30;46.90
19090;DHT22;9677;50.656;13.064;2023-04-23T02:18:26;16.30;47.10
19090;DHT22;9677;50.656;13.064;2023-04-23T02:20:55;16.30;47.20
19090;DHT22;9677;50.656;13.064;2023-04-23T02:23:25;17.10;47.50
19090;DHT22;9677;50.656;13.064;2023-04-23T02:25:54;16.30;47.30
19090;DHT22;9677;50.656;13.064;2023-04-23T02:28:24;16.70;47.50
19090;DHT22;9677;50.656;13.064;2023-04-23T02:30:52;16.20;47.50
19090;DHT22;9677;50.656;13.064;2023-04-23T02:33:22;16.30;47.60
19090;DHT22;9677;50.656;13.064;2023-04-23T02:35:52;16.60;47.70
19090;DHT22;9677;50.656;13.064;2023-04-23T02:38:25;16.20;47.30
19090;DHT22;9677;50.656;13.064;2023-04-23T02:44:22;16.10;48.10
19090;DHT22;9677;50.656;13.064;2023-04-23T03:20:57;16.00;48.70
19090;DHT22;9677;50.656;13.064;2023-04-23T03:37:04;15.90;49.00
19090;DHT22;9677;50.656;13.064;2023-04-23T04:57:19;15.60;50.20
19090;DHT22;9677;50.656;13.064;2023-04-23T05:21:14;15.70;51.10
19090;DHT22;9677;50.656;13.064;2023-04-23T05:27:01;15.70;51.20
19090;DHT22;9677;50.656;13.064;2023-04-23T05:32:50;15.80;51.30
19090;DHT22;9677;50.656;13.064;2023-04-23T05:35:19;15.80;50.70
19090;DHT22;9677;50.656;13.064;2023-04-23T05:37:51;15.80;50.90
19090;DHT22;9677;50.656;13.064;2023-04-23T05:40:20;16.00;51.00
19090;DHT22;9677;50.656;13.064;2023-04-23T05:42:49;16.00;50.90
19090;DHT22;9677;50.656;13.064;2023-04-23T05:45:18;16.00;51.00
19090;DHT22;9677;50.656;13.064;2023-04-23T06:04:24;16.30;51.70
19090;DHT22;9677;50.656;13.064;2023-04-23T06:06:53;16.40;51.40
19090;DHT22;9677;50.656;13.064;2023-04-23T06:09:22;16.40;51.20
19090;DHT22;9677;50.656;13.064;2023-04-23T06:11:51;16.50;51.30
19090;DHT22;9677;50.656;13.064;2023-04-23T06:14:20;16.70;51.40
19090;DHT22;9677;50.656;13.064;2023-04-23T06:16:48;16.60;51.30
19090;DHT22;9677;50.656;13.064;2023-04-23T06:19:16;16.60;51.20
19090;DHT22;9677;50.656;13.064;2023-04-23T06:21:46;16.70;51.20
19090;DHT22;9677;50.656;13.064;2023-04-23T06:24:15;16.70;51.20
19090;DHT22;9677;50.656;13.064;2023-04-23T06:26:43;16.80;51.10
19090;DHT22;9677;50.656;13.064;2023-04-23T06:29:16;16.80;51.10
19090;DHT22;9677;50.656;13.064;2023-04-23T06:31:53;17.10;51.20
19090;DHT22;9677;50.656;13.064;2023-04-23T06:34:22;17.20;51.30
19090;DHT22;9677;50.656;13.064;2023-04-23T06:36:52;17.00;51.00
19090;DHT22;9677;50.656;13.064;2023-04-23T06:39:21;17.10;51.10
19090;DHT22;9677;50.656;13.064;2023-04-23T06:41:49;17.20;51.20
19090;DHT22;9677;50.656;13.064;2023-04-23T06:44:33;17.10;51.00
19090;DHT22;9677;50.656;13.064;2023-04-23T06:47:03;17.20;50.90
19090;DHT22;9677;50.656;13.064;2023-04-23T06:49:32;17.30;51.00
19090;DHT22;9677;50.656;13.064;2023-04-23T06:52:01;17.50;51.00
19090;DHT22;9677;50.656;13.064;2023-04-23T06:54:30;17.50;51.00
19090;DHT22;9677;50.656;13.064;2023-04-23T06:56:58;17.30;50.80
19090;DHT22;9677;50.656;13.064;2023-04-23T06:59:27;17.50;50.80
19090;DHT22;9677;50.656;13.064;2023-04-23T07:01:57;17.40;50.80
19090;DHT22;9677;50.656;13.064;2023-04-23T07:04:25;17.50;50.80
19090;DHT22;9677;50.656;13.064;2023-04-23T07:06:54;17.50;50.70
19090;DHT22;9677;50.656;13.064;2023-04-23T07:09:23;17.80;50.80
19090;DHT22;9677;50.656;13.064;2023-04-23T07:11:52;17.50;50.80
19090;DHT22;9677;50.656;13.064;2023-04-23T07:14:20;17.60;50.80
19090;DHT22;9677;50.656;13.064;2023-04-23T07:16:49;17.70;50.90
19090;DHT22;9677;50.656;13.064;2023-04-23T07:19:18;17.60;50.70
19090;DHT22;9677;50.656;13.064;2023-04-23T07:21:46;17.80;50.90
19090;DHT22;9677;50.656;13.064;2023-04-23T07:24:14;17.70;50.80
19090;DHT22;9677;50.656;13.064;2023-04-23T07:26:45;17.70;51.00
19090;DHT22;9677;50.656;13.064;2023-04-23T07:29:13;17.80;50.90
19090;DHT22;9677;50.656;13.064;2023-04-23T07:31:41;17.80;50.80
19090;DHT22;9677;50.656;13.064;2023-04-23T07:34:10;17.90;50.80
19090;DHT22;9677;50.656;13.064;2023-04-23T07:36:39;17.90;50.80
19090;DHT22;9677;50.656;13.064;2023-04-23T07:39:08;18.00;50.80
19090;DHT22;9677;50.656;13.064;2023-04-23T07:41:37;18.10;50.80
19090;DHT22;9677;50.656;13.064;2023-04-23T07:44:06;18.10;50.80
19090;DHT22;9677;50.656;13.064;2023-04-23T07:46:35;18.10;50.70
19090;DHT22;9677;50.656;13.064;2023-04-23T07:49:04;18.20;50.60
19090;DHT22;9677;50.656;13.064;2023-04-23T07:51:33;18.20;50.60
19090;DHT22;9677;50.656;13.064;2023-04-23T07:54:02;18.30;50.60
19090;DHT22;9677;50.656;13.064;2023-04-23T07:56:31;18.30;50.50
19090;DHT22;9677;50.656;13.064;2023-04-23T07:58:59;18.30;50.40
19090;DHT22;9677;50.656;13.064;2023-04-23T08:01:30;18.50;50.50
19090;DHT22;9677;50.656;13.064;2023-04-23T08:04:00;18.50;50.50
19090;DHT22;9677;50.656;13.064;2023-04-23T08:06:29;18.50;50.40
19090;DHT22;9677;50.656;13.064;2023-04-23T08:09:01;18.60;50.40
19090;DHT22;9677;50.656;13.064;2023-04-23T08:11:34;18.50;50.40
19090;DHT22;9677;50.656;13.064;2023-04-23T08:14:03;18.50;50.40
19090;DHT22;9677;50.656;13.064;2023-04-23T08:16:33;18.70;50.40
19090;DHT22;9677;50.656;13.064;2023-04-23T08:19:05;18.70;50.20
19090;DHT22;9677;50.656;13.064;2023-04-23T08:21:34;18.70;50.10
19090;DHT22;9677;50.656;13.064;2023-04-23T08:24:04;18.80;49.90
19090;DHT22;9677;50.656;13.064;2023-04-23T08:26:34;18.80;49.60
19090;DHT22;9677;50.656;13.064;2023-04-23T08:29:02;18.80;49.60
19090;DHT22;9677;50.656;13.064;2023-04-23T08:31:33;18.70;49.50
19090;DHT22;9677;50.656;13.064;2023-04-23T08:34:02;18.70;49.40
19090;DHT22;9677;50.656;13.064;2023-04-23T08:36:30;18.80;49.40
19090;DHT22;9677;50.656;13.064;2023-04-23T08:38:59;18.70;49.50
19090;DHT22;9677;50.656;13.064;2023-04-23T08:41:34;18.80;49.40
19090;DHT22;9677;50.656;13.064;2023-04-23T08:44:12;18.80;49.40
19090;DHT22;9677;50.656;13.064;2023-04-23T08:46:45;18.60;49.40
19090;DHT22;9677;50.656;13.064;2023-04-23T08:49:14;18.90;49.70
19090;DHT22;9677;50.656;13.064;2023-04-23T08:51:47;18.70;49.50
19090;DHT22;9677;50.656;13.064;2023-04-23T08:54:20;18.90;49.50
19090;DHT22;9677;50.656;13.064;2023-04-23T08:56:50;18.90;49.50
19090;DHT22;9677;50.656;13.064;2023-04-23T08:59:19;18.90;49.50
19090;DHT22;9677;50.656;13.064;2023-04-23T09:01:50;18.80;49.40
19090;DHT22;9677;50.656;13.064;2023-04-23T09:04:19;19.00;49.60
19090;DHT22;9677;50.656;13.064;2023-04-23T09:06:48;19.10;49.70
19090;DHT22;9677;50.656;13.064;2023-04-23T09:09:19;19.00;49.70
19090;DHT22;9677;50.656;13.064;2023-04-23T09:11:49;18.90;49.60
19090;DHT22;9677;50.656;13.064;2023-04-23T09:14:22;18.90;49.40
19090;DHT22;9677;50.656;13.064;2023-04-23T09:16:53;19.00;49.30
19090;DHT22;9677;50.656;13.064;2023-04-23T09:19:24;19.10;49.40
19090;DHT22;9677;50.656;13.064;2023-04-23T09:21:54;19.00;49.30
19090;DHT22;9677;50.656;13.064;2023-04-23T09:24:23;19.00;49.20
19090;DHT22;9677;50.656;13.064;2023-04-23T09:26:52;19.10;49.20
19090;DHT22;9677;50.656;13.064;2023-04-23T09:29:22;19.40;49.20
19090;DHT22;9677;50.656;13.064;2023-04-23T09:31:54;19.50;49.20
19090;DHT22;9677;50.656;13.064;2023-04-23T09:34:33;19.20;49.10
19090;DHT22;9677;50.656;13.064;2023-04-23T09:37:05;19.20;49.00
19090;DHT22;9677;50.656;13.064;2023-04-23T09:39:38;19.20;48.80
19090;DHT22;9677;50.656;13.064;2023-04-23T09:42:07;19.40;48.80
19090;DHT22;9677;50.656;13.064;2023-04-23T09:44:37;19.20;48.60
19090;DHT22;9677;50.656;13.064;2023-04-23T09:47:07;19.20;48.70
19090;DHT22;9677;50.656;13.064;2023-04-23T09:49:44;19.10;48.60
19090;DHT22;9677;50.656;13.064;2023-04-23T09:52:13;19.20;48.80
19090;DHT22;9677;50.656;13.064;2023-04-23T09:54:42;19.10;48.90
19090;DHT22;9677;50.656;13.064;2023-04-23T09:57:12;19.20;49.00
19090;DHT22;9677;50.656;13.064;2023-04-23T09:59:41;19.40;49.00
19090;DHT22;9677;50.656;13.064;2023-04-23T10:02:17;19.30;48.90
19090;DHT22;9677;50.656;13.064;2023-04-23T10:04:50;19.30;48.80
19090;DHT22;9677;50.656;13.064;2023-04-23T10:07:33;19.40;48.80
19090;DHT22;9677;50.656;13.064;2023-04-23T10:10:01;19.50;48.80
19090;DHT22;9677;50.656;13.064;2023-04-23T10:12:31;19.50;48.70
19090;DHT22;9677;50.656;13.064;2023-04-23T10:15:20;19.50;48.60
19090;DHT22;9677;50.656;13.064;2023-04-23T10:17:51;19.60;48.70
19090;DHT22;9677;50.656;13.064;2023-04-23T10:20:21;19.60;48.50
19090;DHT22;9677;50.656;13.064;2023-04-23T10:22:52;19.60;48.40
19090;DHT22;9677;50.656;13.064;2023-04-23T10:25:23;19.60;48.30
19090;DHT22;9677;50.656;13.064;2023-04-23T10:27:54;19.70;48.30
19090;DHT22;9677;50.656;13.064;2023-04-23T10:30:23;19.60;48.20
19090;DHT22;9677;50.656;13.064;2023-04-23T10:32:54;19.90;48.30
19090;DHT22;9677;50.656;13.064;2023-04-23T10:35:24;19.90;48.10
19090;DHT22;9677;50.656;13.064;2023-04-23T10:37:53;19.70;47.90
19090;DHT22;9677;50.656;13.064;2023-04-23T10:40:26;19.80;48.00
19090;DHT22;9677;50.656;13.064;2023-04-23T10:42:58;19.80;47.90
19090;DHT22;9677;50.656;13.064;2023-04-23T10:45:29;19.80;48.00
19090;DHT22;9677;50.656;13.064;2023-04-23T10:48:00;19.90;48.20
19090;DHT22;9677;50.656;13.064;2023-04-23T10:50:34;19.80;48.10
19090;DHT22;9677;50.656;13.064;2023-04-23T10:53:20;19.80;48.10
19090;DHT22;9677;50.656;13.064;2023-04-23T10:55:49;19.90;48.10
19090;DHT22;9677;50.656;13.064;2023-04-23T10:58:17;19.90;48.00
19090;DHT22;9677;50.656;13.064;2023-04-23T11:00:48;19.90;48.00
19090;DHT22;9677;50.656;13.064;2023-04-23T11:03:37;19.90;48.00
19090;DHT22;9677;50.656;13.064;2023-04-23T11:06:13;19.90;48.00
19090;DHT22;9677;50.656;13.064;2023-04-23T11:08:50;19.80;48.00
19090;DHT22;9677;50.656;13.064;2023-04-23T11:11:24;19.80;48.10
19090;DHT22;9677;50.656;13.064;2023-04-23T11:14:11;19.80;48.30
19090;DHT22;9677;50.656;13.064;2023-04-23T11:16:41;19.90;48.40
19090;DHT22;9677;50.656;13.064;2023-04-23T11:19:11;19.90;48.30
19090;DHT22;9677;50.656;13.064;2023-04-23T11:22:01;20.00;48.40
19090;DHT22;9677;50.656;13.064;2023-04-23T11:24:31;20.00;48.50
19090;DHT22;9677;50.656;13.064;2023-04-23T11:27:04;20.00;48.50
19090;DHT22;9677;50.656;13.064;2023-04-23T11:29:34;20.00;48.30
19090;DHT22;9677;50.656;13.064;2023-04-23T11:32:04;20.00;48.30
19090;DHT22;9677;50.656;13.064;2023-04-23T11:34:39;20.10;48.40
19090;DHT22;9677;50.656;13.064;2023-04-23T11:37:13;20.10;48.40
19090;DHT22;9677;50.656;13.064;2023-04-23T11:39:43;20.10;48.40
19090;DHT22;9677;50.656;13.064;2023-04-23T11:42:14;20.20;48.30
19090;DHT22;9677;50.656;13.064;2023-04-23T11:44:46;20.20;48.40
19090;DHT22;9677;50.656;13.064;2023-04-23T11:47:25;20.20;48.00
19090;DHT22;9677;50.656;13.064;2023-04-23T11:50:00;20.30;48.10
19090;DHT22;9677;50.656;13.064;2023-04-23T11:52:33;20.40;48.00
19090;DHT22;9677;50.656;13.064;2023-04-23T11:55:05;20.40;48.00
19090;DHT22;9677;50.656;13.064;2023-04-23T11:57:35;20.40;48.10
19090;DHT22;9677;50.656;13.064;2023-04-23T12:00:13;20.40;48.00
19090;DHT22;9677;50.656;13.064;2023-04-23T12:02:50;20.50;48.20
19090;DHT22;9677;50.656;13.064;2023-04-23T12:05:22;20.60;48.40
19090;DHT22;9677;50.656;13.064;2023-04-23T12:08:05;20.70;48.60
19090;DHT22;9677;50.656;13.064;2023-04-23T12:10:41;20.60;48.70
19090;DHT22;9677;50.656;13.064;2023-04-23T12:13:14;20.80;48.60
19090;DHT22;9677;50.656;13.064;2023-04-23T12:15:45;20.70;48.50
19090;DHT22;9677;50.656;13.064;2023-04-23T12:18:15;20.80;48.40
19090;DHT22;9677;50.656;13.064;2023-04-23T12:20:45;20.80;48.30
19090;DHT22;9677;50.656;13.064;2023-04-23T12:23:13;20.90;48.20
19090;DHT22;9677;50.656;13.064;2023-04-23T12:25:42;20.90;48.10
19090;DHT22;9677;50.656;13.064;2023-04-23T12:28:10;21.00;48.00
19090;DHT22;9677;50.656;13.064;2023-04-23T12:30:43;21.10;48.00
19090;DHT22;9677;50.656;13.064;2023-04-23T12:33:11;21.10;47.90
19090;DHT22;9677;50.656;13.064;2023-04-23T12:35:41;21.10;48.00
19090;DHT22;9677;50.656;13.064;2023-04-23T12:38:22;21.10;48.00
19090;DHT22;9677;50.656;13.064;2023-04-23T12:40:51;21.20;47.80
19090;DHT22;9677;50.656;13.064;2023-04-23T12:43:20;21.30;47.80
19090;DHT22;9677;50.656;13.064;2023-04-23T12:45:48;21.50;47.90
19090;DHT22;9677;50.656;13.064;2023-04-23T12:48:18;21.50;47.80
19090;DHT22;9677;50.656;13.064;2023-04-23T12:50:47;21.40;47.50
19090;DHT22;9677;50.656;13.064;2023-04-23T12:53:16;21.40;47.40
19090;DHT22;9677;50.656;13.064;2023-04-23T12:55:46;21.40;47.40
19090;DHT22;9677;50.656;13.064;2023-04-23T12:58:16;21.40;47.30
19090;DHT22;9677;50.656;13.064;2023-04-23T13:00:44;21.50;47.20
19090;DHT22;9677;50.656;13.064;2023-04-23T13:03:14;21.40;47.20
19090;DHT22;9677;50.656;13.064;2023-04-23T13:05:45;21.50;47.30
19090;DHT22;9677;50.656;13.064;2023-04-23T13:08:13;21.50;47.30
19090;DHT22;9677;50.656;13.064;2023-04-23T13:10:42;21.50;47.70
19090;DHT22;9677;50.656;13.064;2023-04-23T13:13:12;21.50;46.90
19090;DHT22;9677;50.656;13.064;2023-04-23T13:15:41;21.60;46.60
19090;DHT22;9677;50.656;13.064;2023-04-23T13:18:09;21.50;46.50
19090;DHT22;9677;50.656;13.064;2023-04-23T13:20:37;21.60;46.50
19090;DHT22;9677;50.656;13.064;2023-04-23T13:23:06;21.50;46.50
19090;DHT22;9677;50.656;13.064;2023-04-23T13:25:34;21.50;46.30
19090;DHT22;9677;50.656;13.064;2023-04-23T13:28:03;21.70;46.40
19090;DHT22;9677;50.656;13.064;2023-04-23T13:30:32;21.70;46.60
19090;DHT22;9677;50.656;13.064;2023-04-23T13:33:01;21.60;46.60
19090;DHT22;9677;50.656;13.064;2023-04-23T13:35:29;21.70;46.80
19090;DHT22;9677;50.656;13.064;2023-04-23T13:37:58;21.80;46.60
19090;DHT22;9677;50.656;13.064;2023-04-23T13:40:26;21.80;46.40
19090;DHT22;9677;50.656;13.064;2023-04-23T13:42:54;21.90;46.20
19090;DHT22;9677;50.656;13.064;2023-04-23T13:45:24;21.90;46.10
19090;DHT22;9677;50.656;13.064;2023-04-23T13:47:54;22.00;46.10
19090;DHT22;9677;50.656;13.064;2023-04-23T13:50:22;22.00;46.00
19090;DHT22;9677;50.656;13.064;2023-04-23T13:52:51;22.10;46.00
19090;DHT22;9677;50.656;13.064;2023-04-23T13:55:19;22.00;45.90
19090;DHT22;9677;50.656;13.064;2023-04-23T13:57:47;22.20;45.90
19090;DHT22;9677;50.656;13.064;2023-04-23T14:00:16;22.20;45.90
19090;DHT22;9677;50.656;13.064;2023-04-23T14:02:45;22.20;45.60
19090;DHT22;9677;50.656;13.064;2023-04-23T14:05:15;22.40;45.60
19090;DHT22;9677;50.656;13.064;2023-04-23T14:07:43;22.40;45.50
19090;DHT22;9677;50.656;13.064;2023-04-23T14:10:12;22.40;45.40
19090;DHT22;9677;50.656;13.064;2023-04-23T14:12:40;22.30;45.40
19090;DHT22;9677;50.656;13.064;2023-04-23T14:15:09;22.30;45.30
19090;DHT22;9677;50.656;13.064;2023-04-23T14:17:38;22.40;45.40
19090;DHT22;9677;50.656;13.064;2023-04-23T14:20:09;22.40;45.40
19090;DHT22;9677;50.656;13.064;2023-04-23T14:22:39;22.40;45.40
19090;DHT22;9677;50.656;13.064;2023-04-23T14:25:09;22.40;45.20
19090;DHT22;9677;50.656;13.064;2023-04-23T14:27:44;22.40;45.00
19090;DHT22;9677;50.656;13.064;2023-04-23T14:30:14;22.40;45.00
19090;DHT22;9677;50.656;13.064;2023-04-23T14:32:43;22.40;45.00
19090;DHT22;9677;50.656;13.064;2023-04-23T14:35:15;22.40;44.90
19090;DHT22;9677;50.656;13.064;2023-04-23T14:37:56;22.30;44.70
19090;DHT22;9677;50.656;13.064;2023-04-23T14:40:25;22.30;44.70
19090;DHT22;9677;50.656;13.064;2023-04-23T14:42:53;22.30;44.80
19090;DHT22;9677;50.656;13.064;2023-04-23T14:45:34;22.30;44.80
19090;DHT22;9677;50.656;13.064;2023-04-23T14:48:02;22.30;44.90
19090;DHT22;9677;50.656;13.064;2023-04-23T14:50:31;22.30;44.90
19090;DHT22;9677;50.656;13.064;2023-04-23T14:53:01;22.30;44.80
19090;DHT22;9677;50.656;13.064;2023-04-23T14:55:33;22.30;44.90
19090;DHT22;9677;50.656;13.064;2023-04-23T14:58:01;22.30;45.10
19090;DHT22;9677;50.656;13.064;2023-04-23T15:00:29;22.30;45.20
19090;DHT22;9677;50.656;13.064;2023-04-23T15:02:58;22.30;45.20
19090;DHT22;9677;50.656;13.064;2023-04-23T15:05:28;22.30;45.10
19090;DHT22;9677;50.656;13.064;2023-04-23T15:07:57;22.40;45.00
19090;DHT22;9677;50.656;13.064;2023-04-23T15:10:28;22.40;44.90
19090;DHT22;9677;50.656;13.064;2023-04-23T15:16:18;22.50;44.70
19090;DHT22;9677;50.656;13.064;2023-04-23T15:19:13;22.20;44.20
19090;DHT22;9677;50.656;13.064;2023-04-23T15:21:47;22.60;44.40
19090;DHT22;9677;50.656;13.064;2023-04-23T15:24:18;22.50;44.60
19090;DHT22;9677;50.656;13.064;2023-04-23T15:26:50;22.60;44.40
19090;DHT22;9677;50.656;13.064;2023-04-23T15:29:25;22.60;44.70
19090;DHT22;9677;50.656;13.064;2023-04-23T15:31:55;22.60;44.60
19090;DHT22;9677;50.656;13.064;2023-04-23T15:34:27;22.50;44.40
19090;DHT22;9677;50.656;13.064;2023-04-23T15:36:56;22.80;44.40
19090;DHT22;9677;50.656;13.064;2023-04-23T15:46:10;22.70;44.00
19090;DHT22;9677;50.656;13.064;2023-04-23T15:48:41;22.70;43.90
19090;DHT22;9677;50.656;13.064;2023-04-23T16:03:45;22.80;44.10
19090;DHT22;9677;50.656;13.064;2023-04-23T16:06:34;22.80;43.90
19090;DHT22;9677;50.656;13.064;2023-04-23T16:09:03;22.80;44.20
19090;DHT22;9677;50.656;13.064;2023-04-23T16:11:35;22.80;44.10
19090;DHT22;9677;50.656;13.064;2023-04-23T16:14:05;22.80;44.70
19090;DHT22;9677;50.656;13.064;2023-04-23T16:16:35;22.80;44.00
19090;DHT22;9677;50.656;13.064;2023-04-23T16:19:07;22.70;44.00
19090;DHT22;9677;50.656;13.064;2023-04-23T16:21:37;22.80;44.10
19090;DHT22;9677;50.656;13.064;2023-04-23T16:24:07;22.80;43.90
19090;DHT22;9677;50.656;13.064;2023-04-23T16:26:37;22.80;43.80
19090;DHT22;9677;50.656;13.064;2023-04-23T16:29:06;22.80;43.70
19090;DHT22;9677;50.656;13.064;2023-04-23T16:31:48;22.80;44.00
19090;DHT22;9677;50.656;13.064;2023-04-23T16:34:18;22.80;44.10
19090;DHT22;9677;50.656;13.064;2023-04-23T16:36:46;22.70;44.00
19090;DHT22;9677;50.656;13.064;2023-04-23T16:39:15;22.70;44.10
19090;DHT22;9677;50.656;13.064;2023-04-23T16:41:44;22.70;44.10
19090;DHT22;9677;50.656;13.064;2023-04-23T16:44:13;22.50;43.60
19090;DHT22;9677;50.656;13.064;2023-04-23T16:46:42;22.60;43.80
19090;DHT22;9677;50.656;13.064;2023-04-23T16:49:11;22.60;43.80
19090;DHT22;9677;50.656;13.064;2023-04-23T16:51:42;22.60;43.90
19090;DHT22;9677;50.656;13.064;2023-04-23T16:54:10;22.50;43.80
19090;DHT22;9677;50.656;13.064;2023-04-23T16:56:39;22.60;43.80
19090;DHT22;9677;50.656;13.064;2023-04-23T16:59:08;22.40;43.80
19090;DHT22;9677;50.656;13.064;2023-04-23T17:01:37;22.40;43.60
19090;DHT22;9677;50.656;13.064;2023-04-23T17:04:06;22.30;43.50
19090;DHT22;9677;50.656;13.064;2023-04-23T17:06:36;22.00;43.60
19090;DHT22;9677;50.656;13.064;2023-04-23T17:09:10;22.10;43.70
19090;DHT22;9677;50.656;13.064;2023-04-23T17:14:48;22.10;44.20
19090;DHT22;9677;50.656;13.064;2023-04-23T17:23:31;21.90;44.50
19090;DHT22;9677;50.656;13.064;2023-04-23T17:26:02;21.80;44.20
19090;DHT22;9677;50.656;13.064;2023-04-23T17:28:32;21.90;44.40
19090;DHT22;9677;50.656;13.064;2023-04-23T17:31:02;21.70;44.20
19090;DHT22;9677;50.656;13.064;2023-04-23T17:33:32;21.70;44.50
19090;DHT22;9677;50.656;13.064;2023-04-23T17:36:02;21.60;44.50
19090;DHT22;9677;50.656;13.064;2023-04-23T17:38:32;21.60;44.60
19090;DHT22;9677;50.656;13.064;2023-04-23T17:44:21;21.40;44.80
19090;DHT22;9677;50.656;13.064;2023-04-23T18:06:57;20.80;45.60
19090;DHT22;9677;50.656;13.064;2023-04-23T18:19:08;20.40;46.00
19090;DHT22;9677;50.656;13.064;2023-04-23T18:24:55;20.20;46.30
19090;DHT22;9677;50.656;13.064;2023-04-23T18:30:52;20.10;46.30
19090;DHT22;9677;50.656;13.064;2023-04-23T18:33:41;20.00;46.50
19090;DHT22;9677;50.656;13.064;2023-04-23T18:51:49;19.60;46.80
19090;DHT22;9677;50.656;13.064;2023-04-23T19:30:57;18.50;48.10
19090;DHT22;9677;50.656;13.064;2023-04-23T19:33:28;18.40;47.90
19090;DHT22;9677;50.656;13.064;2023-04-23T19:35:58;18.40;48.10
19090;DHT22;9677;50.656;13.064;2023-04-23T19:38:29;18.30;48.20
19090;DHT22;9677;50.656;13.064;2023-04-23T19:40:58;18.30;48.30
19090;DHT22;9677;50.656;13.064;2023-04-23T19:43:29;18.20;48.20
19090;DHT22;9677;50.656;13.064;2023-04-23T19:45:59;18.00;48.20
19090;DHT22;9677;50.656;13.064;2023-04-23T19:48:28;17.80;48.20
19090;DHT22;9677;50.656;13.064;2023-04-23T19:50:58;18.10;48.20
19090;DHT22;9677;50.656;13.064;2023-04-23T19:53:32;18.00;48.50
19090;DHT22;9677;50.656;13.064;2023-04-23T19:56:02;18.00;48.40
19090;DHT22;9677;50.656;13.064;2023-04-23T19:58:40;18.50;48.70
19090;DHT22;9677;50.656;13.064;2023-04-23T20:04:27;17.80;49.10
19090;DHT22;9677;50.656;13.064;2023-04-23T20:06:58;18.00;48.70
19090;DHT22;9677;50.656;13.064;2023-04-23T20:09:27;18.40;48.90
19090;DHT22;9677;50.656;13.064;2023-04-23T20:14:55;17.70;49.40
19090;DHT22;9677;50.656;13.064;2023-04-23T20:17:25;17.80;49.00
19090;DHT22;9677;50.656;13.064;2023-04-23T20:23:12;17.60;49.50
19090;DHT22;9677;50.656;13.064;2023-04-23T20:28:43;17.50;49.50
19090;DHT22;9677;50.656;13.064;2023-04-23T20:40:44;17.30;49.60
19090;DHT22;9677;50.656;13.064;2023-04-23T20:43:14;17.30;49.50
19090;DHT22;9677;50.656;13.064;2023-04-23T20:45:44;17.20;49.20
19090;DHT22;9677;50.656;13.064;2023-04-23T20:48:18;17.20;49.50
19090;DHT22;9677;50.656;13.064;2023-04-23T20:50:51;17.00;49.20
19090;DHT22;9677;50.656;13.064;2023-04-23T20:53:21;17.20;49.50
19090;DHT22;9677;50.656;13.064;2023-04-23T20:55:52;17.00;49.40
19090;DHT22;9677;50.656;13.064;2023-04-23T20:58:23;17.00;49.50
19090;DHT22;9677;50.656;13.064;2023-04-23T21:00:57;17.30;49.60
19090;DHT22;9677;50.656;13.064;2023-04-23T21:41:01;16.40;51.00
19090;DHT22;9677;50.656;13.064;2023-04-23T22:20:50;16.00;50.90
